Time;durP1;ratioP1;P1;durP2;ratioP2;P2;SDS_P1;SDS_P2;PMS_P1;PMS_P2;Temp;Humidity;BMP_temperature;BMP_pressure;BME280_temperature;BME280_humidity;BME280_pressure;Samples;Min_cycle;Max_cycle;Signal;HPM_P1;HPM_P2
2023/05/11 00:01:39;;;;;;;17.90;7.80;;;;;;;7.36;65.84;101847.82;107504;1251;97780;-59
2023/05/11 00:04:08;;;;;;;18.40;8.50;;;;;;;7.32;66.22;101845.20;107518;1251;112228;-59
2023/05/11 00:06:40;;;;;;;14.90;8.10;;;;;;;7.27;66.12;101845.11;107492;1254;110483;-60
2023/05/11 00:09:10;;;;;;;10.80;6.80;;;;;;;7.24;66.21;101844.64;107628;1251;109427;-60
2023/05/11 00:11:38;;;;;;;14.50;7.40;;;;;;;7.18;66.11;101844.73;107528;1251;97893;-60
2023/05/11 00:14:06;;;;;;;15.10;7.50;;;;;;;7.16;66.36;101845.24;107490;1251;98344;-59
2023/05/11 00:16:34;;;;;;;13.50;7.30;;;;;;;7.14;66.46;101845.33;107536;1250;112386;-60
2023/05/11 00:19:03;;;;;;;18.70;7.70;;;;;;;7.14;66.41;101845.85;107498;1254;109806;-60
2023/05/11 00:21:32;;;;;;;18.10;6.60;;;;;;;7.14;66.38;101848.73;107525;1251;107019;-60
2023/05/11 00:24:02;;;;;;;15.90;8.30;;;;;;;7.12;66.45;101847.77;107460;1253;97764;-61
2023/05/11 00:26:31;;;;;;;17.50;7.20;;;;;;;7.10;66.38;101849.16;107410;1254;97832;-59
2023/05/11 00:28:59;;;;;;;10.80;7.00;;;;;;;7.10;66.83;101845.93;107574;1251;111889;-59
2023/05/11 00:31:28;;;;;;;14.50;7.20;;;;;;;7.11;66.94;101846.08;107568;1257;110490;-62
2023/05/11 00:33:58;;;;;;;14.30;7.60;;;;;;;7.09;66.78;101849.54;107508;1254;108037;-60
2023/05/11 00:36:26;;;;;;;16.80;7.40;;;;;;;7.09;66.76;101852.98;107578;1254;97813;-61
2023/05/11 00:38:57;;;;;;;13.00;6.50;;;;;;;7.07;66.72;101843.77;107622;1251;97788;-60
2023/05/11 00:41:26;;;;;;;14.00;7.30;;;;;;;7.05;66.93;101842.08;107577;1251;112833;-60
2023/05/11 00:43:54;;;;;;;16.80;8.20;;;;;;;7.04;66.74;101847.17;107585;1251;109644;-61
2023/05/11 00:46:27;;;;;;;17.40;7.00;;;;;;;7.02;66.88;101847.98;107530;1254;108227;-58
2023/05/11 00:48:56;;;;;;;17.60;7.80;;;;;;;6.98;66.68;101846.44;107610;1251;97930;-59
2023/05/11 00:51:26;;;;;;;18.00;6.60;;;;;;;6.92;66.75;101841.41;107583;1251;97722;-59
2023/05/11 00:53:57;;;;;;;11.40;6.50;;;;;;;6.88;66.93;101844.08;107586;1251;111751;-60
2023/05/11 00:56:25;;;;;;;10.40;6.60;;;;;;;6.85;66.97;101844.30;107560;1251;109052;-57
2023/05/11 00:58:54;;;;;;;11.10;6.40;;;;;;;6.82;67.03;101847.50;107539;1251;108713;-59
2023/05/11 01:01:23;;;;;;;10.10;5.70;;;;;;;6.80;67.34;101847.76;107573;1251;97841;-59
2023/05/11 01:03:56;;;;;;;12.30;6.70;;;;;;;6.78;67.47;101847.67;107642;1251;97834;-59
2023/05/11 01:06:30;;;;;;;18.00;7.40;;;;;;;6.76;67.80;101849.24;107612;1251;111556;-59
2023/05/11 01:09:05;;;;;;;;;;;;;;;6.74;67.86;101844.55;107648;1256;108733;-60
2023/05/11 01:11:50;;;;;;;10.00;5.70;;;;;;;6.70;67.53;101847.27;107648;1254;108419;-58
2023/05/11 01:14:30;;;;;;;15.10;6.00;;;;;;;6.67;67.67;101840.48;107615;1254;97815;-61
2023/05/11 01:17:04;;;;;;;22.80;6.70;;;;;;;6.62;67.69;101840.22;107636;1251;97843;-60
2023/05/11 01:19:33;;;;;;;15.40;6.60;;;;;;;6.55;67.90;101837.02;107687;1253;111420;-59
2023/05/11 01:22:19;;;;;;;16.70;5.70;;;;;;;6.50;67.98;101839.94;107580;1251;109222;-59
2023/05/11 01:25:12;;;;;;;12.10;5.60;;;;;;;6.44;68.13;101841.54;107555;1251;108501;-59
2023/05/11 01:28:17;;;;;;;13.60;6.30;;;;;;;6.39;68.32;101841.45;107505;1251;97895;-60
2023/05/11 01:31:03;;;;;;;16.80;6.40;;;;;;;6.38;68.55;101842.54;107475;1253;98373;-62
2023/05/11 01:33:35;;;;;;;12.90;6.20;;;;;;;6.40;68.46;101841.91;107581;1253;113182;-61
2023/05/11 01:36:08;;;;;;;18.60;5.90;;;;;;;6.40;68.69;101846.89;107604;1254;108687;-62
2023/05/11 01:38:39;;;;;;;11.60;6.10;;;;;;;6.41;68.69;101844.19;107635;1254;107791;-61
2023/05/11 01:41:13;;;;;;;14.10;6.70;;;;;;;6.42;68.53;101843.75;107578;1254;97825;-63
2023/05/11 01:43:46;;;;;;;14.90;6.40;;;;;;;6.41;68.59;101844.00;107642;1253;97824;-60
2023/05/11 01:46:16;;;;;;;11.90;6.10;;;;;;;6.39;68.60;101844.29;107617;1251;112859;-60
2023/05/11 01:48:50;;;;;;;14.00;5.80;;;;;;;6.40;68.78;101842.29;107569;1251;108976;-59
2023/05/11 01:51:24;;;;;;;13.60;5.60;;;;;;;6.38;68.81;101843.77;107437;1252;107180;-60
2023/05/11 01:53:53;;;;;;;14.50;6.50;;;;;;;6.34;68.75;101849.89;107622;1253;97821;-60
2023/05/11 01:56:25;;;;;;;16.40;6.60;;;;;;;6.30;68.98;101844.03;107572;1251;98334;-58
2023/05/11 01:58:56;;;;;;;9.90;5.50;;;;;;;6.26;69.28;101847.61;107629;1251;110266;-58
2023/05/11 02:01:26;;;;;;;14.80;5.80;;;;;;;6.23;69.13;101847.80;107581;1251;110007;-60
2023/05/11 02:03:57;;;;;;;17.20;6.70;;;;;;;6.21;69.22;101852.56;107605;1251;106712;-59
2023/05/11 02:06:28;;;;;;;13.10;5.20;;;;;;;6.20;69.27;101855.10;107476;1254;97857;-59
2023/05/11 02:08:58;;;;;;;10.80;5.60;;;;;;;6.18;69.21;101847.52;107460;1253;97886;-59
2023/05/11 02:11:29;;;;;;;20.30;6.40;;;;;;;6.14;69.26;101849.88;107456;1254;111794;-61
2023/05/11 02:13:58;;;;;;;12.30;5.50;;;;;;;6.10;69.08;101849.89;107476;1254;110359;-58
2023/05/11 02:16:30;;;;;;;10.00;5.20;;;;;;;6.08;69.52;101850.19;107605;1251;108316;-59
2023/05/11 02:18:59;;;;;;;13.10;5.60;;;;;;;6.07;69.57;101853.81;107619;1251;97818;-58
2023/05/11 02:21:30;;;;;;;10.50;6.20;;;;;;;6.05;69.67;101856.77;107664;1254;97717;-59
2023/05/11 02:24:02;;;;;;;9.20;5.70;;;;;;;6.05;69.76;101856.08;107584;1251;112250;-61
2023/05/11 02:26:30;;;;;;;8.90;5.00;;;;;;;6.04;69.76;101855.02;107649;1254;108796;-60
2023/05/11 02:28:59;;;;;;;19.60;6.50;;;;;;;6.03;69.51;101857.39;107570;1256;107967;-59
2023/05/11 02:31:29;;;;;;;8.00;5.50;;;;;;;6.01;69.47;101863.05;107550;1250;97921;-60
2023/05/11 02:34:08;;;;;;;10.00;5.60;;;;;;;5.98;69.55;101870.83;107705;1251;97896;-60
2023/05/11 02:36:38;;;;;;;22.50;5.50;;;;;;;5.97;69.87;101870.84;107477;1251;111137;-60
2023/05/11 02:39:11;;;;;;;11.00;5.60;;;;;;;5.97;69.84;101870.83;107497;1251;109263;-60
2023/05/11 02:41:42;;;;;;;9.80;5.00;;;;;;;5.95;69.88;101868.45;107618;1250;107047;-59
2023/05/11 02:44:15;;;;;;;12.80;6.30;;;;;;;5.94;69.98;101868.52;107559;1251;97758;-59
2023/05/11 02:46:47;;;;;;;17.50;6.70;;;;;;;5.93;69.83;101871.92;107524;1251;98439;-59
2023/05/11 02:49:20;;;;;;;9.50;6.20;;;;;;;5.92;69.98;101871.25;107540;1251;111278;-59
2023/05/11 02:51:53;;;;;;;13.70;5.20;;;;;;;5.91;69.97;101871.69;107503;1251;109668;-59
2023/05/11 02:54:23;;;;;;;27.50;5.50;;;;;;;5.85;69.95;101874.65;107515;1254;106829;-58
2023/05/11 02:56:54;;;;;;;14.50;5.40;;;;;;;5.82;69.90;101877.83;107569;1251;98320;-59
2023/05/11 02:59:23;;;;;;;14.20;5.70;;;;;;;5.82;70.26;101879.98;107608;1251;98477;-59
2023/05/11 03:01:54;;;;;;;14.40;6.10;;;;;;;5.83;70.22;101882.07;107476;1257;110533;-60
2023/05/11 03:04:23;;;;;;;13.20;6.00;;;;;;;5.83;70.28;101883.34;107554;1251;109020;-61
2023/05/11 03:06:52;;;;;;;12.50;5.80;;;;;;;5.84;70.23;101885.21;107578;1253;108653;-60
2023/05/11 03:09:21;;;;;;;10.90;5.90;;;;;;;5.88;70.28;101887.52;107444;1255;97823;-60
2023/05/11 03:11:49;;;;;;;13.00;5.10;;;;;;;5.92;70.43;101883.20;107570;1251;98334;-62
2023/05/11 03:14:18;;;;;;;19.40;5.40;;;;;;;5.95;70.36;101883.03;107565;1251;111634;-60
2023/05/11 03:16:48;;;;;;;14.90;5.50;;;;;;;5.96;70.16;101881.58;107480;1254;109165;-60
2023/05/11 03:19:17;;;;;;;15.00;5.50;;;;;;;5.97;70.39;101887.60;107612;1254;106510;-59
2023/05/11 03:21:46;;;;;;;16.10;5.90;;;;;;;5.98;70.52;101890.77;107599;1251;97967;-59
2023/05/11 03:24:16;;;;;;;14.30;5.80;;;;;;;6.00;70.63;101896.38;107650;1251;98453;-60
2023/05/11 03:26:45;;;;;;;17.80;5.90;;;;;;;6.04;70.67;101894.92;107482;1254;111790;-58
2023/05/11 03:29:15;;;;;;;15.20;5.50;;;;;;;6.06;71.00;101896.39;107549;1251;110079;-58
2023/05/11 03:31:44;;;;;;;11.40;6.50;;;;;;;6.11;71.10;101901.85;107592;1256;108938;-59
2023/05/11 03:34:16;;;;;;;20.00;5.90;;;;;;;6.15;70.96;101902.73;107637;1256;97905;-59
2023/05/11 03:36:48;;;;;;;31.00;8.30;;;;;;;6.17;70.82;101900.31;107601;1251;98382;-60
2023/05/11 03:39:18;;;;;;;12.00;5.00;;;;;;;6.21;70.64;101901.71;107642;1251;111811;-59
2023/05/11 03:41:49;;;;;;;7.70;5.00;;;;;;;6.23;70.88;101898.75;107533;1250;109051;-59
2023/05/11 03:44:21;;;;;;;25.60;6.20;;;;;;;6.26;70.84;101905.56;107592;1251;108403;-59
2023/05/11 03:46:54;;;;;;;16.60;5.60;;;;;;;6.30;71.06;101906.23;107465;1251;97896;-60
2023/05/11 03:49:23;;;;;;;13.30;6.60;;;;;;;6.34;71.01;101903.02;107613;1251;97749;-59
2023/05/11 03:51:52;;;;;;;12.00;4.90;;;;;;;6.38;71.01;101903.50;107610;1251;112263;-59
2023/05/11 03:54:21;;;;;;;16.70;5.80;;;;;;;6.38;70.81;101906.17;107584;1251;109235;-59
2023/05/11 03:56:50;;;;;;;12.30;5.00;;;;;;;6.39;71.10;101907.70;107585;1251;107549;-59
2023/05/11 03:59:20;;;;;;;15.90;6.00;;;;;;;6.45;71.33;101908.29;107497;1254;97848;-59
2023/05/11 04:01:51;;;;;;;11.20;5.90;;;;;;;6.50;71.26;101909.64;107689;1255;97924;-60
2023/05/11 04:04:28;;;;;;;15.30;6.80;;;;;;;6.54;71.43;101910.82;107622;1251;111279;-60
2023/05/11 04:06:58;;;;;;;13.10;6.60;;;;;;;6.60;71.55;101914.11;107564;1251;109731;-58
2023/05/11 04:09:26;;;;;;;9.20;6.90;;;;;;;6.67;71.57;101914.46;107616;1251;107975;-61
2023/05/11 04:11:55;;;;;;;17.00;6.70;;;;;;;6.73;71.74;101913.97;107516;1251;97886;-65
2023/05/11 04:14:26;;;;;;;16.70;7.10;;;;;;;6.79;71.82;101916.30;107556;1251;97812;-64
2023/05/11 04:16:55;;;;;;;15.40;7.50;;;;;;;6.83;71.82;101923.01;107605;1253;112472;-64
2023/05/11 04:19:24;;;;;;;10.20;6.10;;;;;;;6.90;72.00;101918.38;107484;1251;110113;-59
2023/05/11 04:21:52;;;;;;;10.10;6.30;;;;;;;6.97;71.93;101924.09;107582;1254;107643;-60
2023/05/11 04:24:21;;;;;;;17.20;6.50;;;;;;;7.03;72.24;101922.98;107567;1251;98417;-58
2023/05/11 04:26:55;;;;;;;12.30;6.00;;;;;;;7.12;72.28;101932.31;107535;1251;97801;-60
2023/05/11 04:29:24;;;;;;;24.30;7.00;;;;;;;7.20;72.47;101932.58;107582;1254;110558;-62
2023/05/11 04:31:52;;;;;;;15.70;7.20;;;;;;;7.29;72.58;101933.38;107532;1251;109526;-59
2023/05/11 04:34:21;;;;;;;17.40;6.50;;;;;;;7.37;72.67;101934.54;107525;1251;108640;-59
2023/05/11 04:36:50;;;;;;;12.50;7.00;;;;;;;7.42;72.49;101937.46;107586;1251;97827;-59
2023/05/11 04:39:19;;;;;;;14.20;6.30;;;;;;;7.48;72.56;101933.20;107701;1251;99577;-60
2023/05/11 04:41:48;;;;;;;25.30;7.00;;;;;;;7.55;72.50;101933.70;107543;1251;111861;-60
2023/05/11 04:44:17;;;;;;;15.10;7.90;;;;;;;7.61;72.39;101929.77;107649;1251;109710;-59
2023/05/11 04:46:46;;;;;;;10.80;6.90;;;;;;;7.68;72.53;101934.56;107600;1251;107541;-61
2023/05/11 04:49:14;;;;;;;25.90;7.20;;;;;;;7.72;72.28;101932.89;107586;1251;97822;-59
2023/05/11 04:51:45;;;;;;;16.90;7.50;;;;;;;7.79;72.51;101934.45;107578;1251;98369;-60
2023/05/11 04:54:15;;;;;;;82.00;42.80;;;;;;;7.86;72.67;101934.25;107563;1251;111474;-60
2023/05/11 04:56:44;;;;;;;19.90;9.40;;;;;;;7.91;72.55;101934.45;107618;1251;110025;-59
2023/05/11 04:59:12;;;;;;;13.60;8.10;;;;;;;7.99;72.67;101929.71;107590;1256;107840;-59
2023/05/11 05:01:41;;;;;;;16.60;7.90;;;;;;;8.09;72.54;101935.02;107548;1253;97854;-61
2023/05/11 05:04:09;;;;;;;27.20;8.70;;;;;;;8.16;72.23;101932.86;107583;1251;97802;-60
2023/05/11 05:06:38;;;;;;;20.50;7.60;;;;;;;8.23;72.20;101934.58;107650;1251;111697;-63
2023/05/11 05:09:10;;;;;;;14.20;7.60;;;;;;;8.29;72.17;101930.25;107557;1250;109783;-61
2023/05/11 05:11:41;;;;;;;26.30;7.40;;;;;;;8.37;72.11;101929.23;107572;1251;107577;-60
2023/05/11 05:14:10;;;;;;;24.70;6.50;;;;;;;8.46;72.08;101932.29;107623;1251;97832;-60
2023/05/11 05:16:38;;;;;;;32.90;12.80;;;;;;;8.54;72.44;101935.96;107627;1251;98491;-60
2023/05/11 05:19:08;;;;;;;30.90;10.20;;;;;;;8.62;72.42;101938.31;107593;1250;110723;-60
2023/05/11 05:21:39;;;;;;;20.10;6.20;;;;;;;8.71;72.83;101935.82;107625;1256;109904;-59
2023/05/11 05:24:10;;;;;;;24.50;7.10;;;;;;;8.78;73.56;101940.34;107622;1251;108274;-60
2023/05/11 05:26:39;;;;;;;16.70;6.50;;;;;;;8.84;72.86;101943.77;107554;1251;97671;-59
2023/05/11 05:29:08;;;;;;;23.50;8.70;;;;;;;8.91;73.02;101946.34;107606;1254;97881;-59
2023/05/11 05:31:38;;;;;;;12.10;5.70;;;;;;;8.99;73.60;101946.73;107518;1254;111337;-57
2023/05/11 05:34:07;;;;;;;22.20;6.60;;;;;;;9.07;73.80;101947.15;107497;1254;109658;-59
2023/05/11 05:36:38;;;;;;;146.40;12.60;;;;;;;9.14;74.28;101948.34;107619;1251;108119;-59
2023/05/11 05:39:10;;;;;;;29.30;6.40;;;;;;;9.19;74.22;101948.54;107562;1251;97794;-60
2023/05/11 05:41:41;;;;;;;17.60;5.20;;;;;;;9.24;74.23;101948.02;107638;1251;97835;-60
2023/05/11 05:44:10;;;;;;;15.30;6.40;;;;;;;9.30;74.25;101949.09;107570;1251;111732;-59
2023/05/11 05:46:39;;;;;;;17.00;7.00;;;;;;;9.35;73.81;101949.30;107577;1251;110387;-59
2023/05/11 05:49:08;;;;;;;26.30;11.70;;;;;;;9.41;73.65;101946.79;107627;1251;108564;-60
2023/05/11 05:51:37;;;;;;;19.00;7.10;;;;;;;9.48;73.81;101951.19;107558;1253;97803;-60
2023/05/11 05:54:06;;;;;;;256.30;16.70;;;;;;;9.55;73.83;101950.34;107615;1252;98380;-58
2023/05/11 05:56:35;;;;;;;102.70;9.20;;;;;;;9.62;73.86;101948.84;107626;1251;110801;-59
2023/05/11 05:59:11;;;;;;;44.60;8.00;;;;;;;9.70;74.09;101950.06;107622;1250;109785;-60
2023/05/11 06:01:44;;;;;;;303.80;20.40;;;;;;;9.81;74.20;101953.69;107560;1254;108193;-59
2023/05/11 06:04:14;;;;;;;67.60;9.70;;;;;;;9.90;74.44;101950.17;107622;1251;97783;-58
2023/05/11 06:06:43;;;;;;;29.40;6.50;;;;;;;10.01;74.66;101948.22;107619;1251;98408;-61
2023/05/11 06:09:12;;;;;;;11.10;5.80;;;;;;;10.12;74.22;101951.40;107655;1251;112502;-60
2023/05/11 06:11:40;;;;;;;98.50;10.20;;;;;;;10.20;74.02;101951.21;107571;1254;109462;-60
2023/05/11 06:14:09;;;;;;;16.80;5.60;;;;;;;10.32;73.94;101947.89;107643;1251;106720;-63
2023/05/11 06:16:37;;;;;;;12.40;5.50;;;;;;;10.43;73.37;101946.66;107595;1251;97909;-61
2023/05/11 06:19:07;;;;;;;19.70;5.80;;;;;;;10.52;73.22;101951.78;107655;1251;98460;-60
2023/05/11 06:21:36;;;;;;;27.40;6.10;;;;;;;10.61;73.01;101948.63;107614;1254;111196;-60
2023/05/11 06:24:05;;;;;;;27.40;5.50;;;;;;;10.70;73.00;101948.77;107600;1251;110140;-62
2023/05/11 06:26:35;;;;;;;16.50;6.10;;;;;;;10.80;72.94;101952.52;107472;1256;107795;-60
2023/05/11 06:29:03;;;;;;;18.40;5.70;;;;;;;10.92;73.17;101948.81;107613;1254;97929;-61
2023/05/11 06:31:33;;;;;;;14.40;5.30;;;;;;;11.04;72.49;101948.31;107532;1253;98399;-60
2023/05/11 06:34:02;;;;;;;11.20;5.90;;;;;;;11.16;72.18;101948.34;107650;1250;112510;-60
2023/05/11 06:36:31;;;;;;;12.70;4.80;;;;;;;11.28;71.99;101950.36;107608;1251;109079;-61
2023/05/11 06:38:59;;;;;;;11.30;5.40;;;;;;;11.41;71.71;101949.80;107635;1256;107610;-60
2023/05/11 06:41:28;;;;;;;48.20;6.60;;;;;;;11.53;71.35;101948.52;107622;1251;97840;-61
2023/05/11 06:43:56;;;;;;;441.30;33.10;;;;;;;11.66;70.75;101947.77;107573;1251;97796;-59
2023/05/11 06:46:31;;;;;;;40.00;6.30;;;;;;;11.78;70.20;101950.32;107596;1252;111235;-61
2023/05/11 06:49:00;;;;;;;11.70;5.20;;;;;;;11.88;70.04;101943.24;107660;1250;109982;-60
2023/05/11 06:51:28;;;;;;;14.70;4.70;;;;;;;11.98;69.73;101941.98;107604;1256;107838;-61
2023/05/11 06:53:56;;;;;;;10.00;5.00;;;;;;;12.09;69.09;101940.64;107626;1254;97804;-61
2023/05/11 06:56:24;;;;;;;15.40;5.30;;;;;;;12.20;67.95;101939.10;107607;1252;97892;-61
2023/05/11 06:58:53;;;;;;;15.30;4.70;;;;;;;12.31;66.77;101938.59;107682;1251;112997;-60
2023/05/11 07:01:21;;;;;;;8.80;4.40;;;;;;;12.44;66.53;101935.13;107613;1250;110110;-60
2023/05/11 07:03:53;;;;;;;91.30;7.60;;;;;;;12.55;65.69;101934.56;107641;1251;109102;-59
2023/05/11 07:06:22;;;;;;;8.60;3.70;;;;;;;12.68;63.56;101937.54;107632;1251;99598;-60
2023/05/11 07:08:50;;;;;;;51.60;5.20;;;;;;;12.81;62.68;101936.70;107657;1254;98392;-62
2023/05/11 07:11:18;;;;;;;36.70;4.50;;;;;;;12.94;60.13;101936.20;107608;1251;111260;-60
2023/05/11 07:13:47;;;;;;;42.30;5.90;;;;;;;13.07;60.07;101935.67;107589;1251;110154;-60
2023/05/11 07:16:15;;;;;;;10.60;3.60;;;;;;;13.16;58.52;101932.42;107560;1251;108003;-61
2023/05/11 07:18:43;;;;;;;16.20;3.50;;;;;;;13.27;57.96;101933.69;107588;1251;97802;-61
2023/05/11 07:21:11;;;;;;;15.20;5.30;;;;;;;13.38;58.83;101934.48;107547;1253;97720;-64
2023/05/11 07:23:43;;;;;;;5.60;3.10;;;;;;;13.48;58.04;101934.78;107595;1251;110869;-61
2023/05/11 07:26:11;;;;;;;10.60;4.70;;;;;;;13.57;57.61;101937.92;107560;1250;110127;-60
2023/05/11 07:28:40;;;;;;;6.70;3.10;;;;;;;13.67;55.43;101937.16;107635;1251;107810;-60
2023/05/11 07:31:08;;;;;;;4.40;2.40;;;;;;;13.78;54.73;101938.74;107494;1251;97845;-59
2023/05/11 07:33:38;;;;;;;6.30;2.30;;;;;;;13.89;54.69;101935.14;107558;1250;97828;-61
2023/05/11 07:36:07;;;;;;;19.60;3.20;;;;;;;14.00;54.80;101930.79;107647;1251;110542;-59
2023/05/11 07:38:35;;;;;;;4.70;2.50;;;;;;;14.12;53.57;101932.31;107655;1253;108219;-58
2023/05/11 07:41:03;;;;;;;15.40;2.80;;;;;;;14.27;53.46;101931.42;107594;1251;108949;-61
2023/05/11 07:43:34;;;;;;;8.40;2.40;;;;;;;14.42;50.92;101928.49;107578;1251;97828;-59
2023/05/11 07:46:03;;;;;;;4.90;3.00;;;;;;;14.60;51.53;101928.04;107585;1250;97729;-60
2023/05/11 07:48:31;;;;;;;8.10;3.00;;;;;;;14.82;51.10;101930.64;107578;1254;112344;-60
2023/05/11 07:51:00;;;;;;;7.50;2.80;;;;;;;15.05;49.80;101929.86;107591;1254;109547;-60
2023/05/11 07:53:29;;;;;;;8.70;2.50;;;;;;;15.22;49.74;101925.98;107595;1251;107531;-60
2023/05/11 07:55:59;;;;;;;11.80;2.70;;;;;;;15.38;48.85;101927.81;107510;1254;97941;-63
2023/05/11 07:58:28;;;;;;;12.30;2.80;;;;;;;15.49;49.45;101928.27;107602;1251;97847;-59
2023/05/11 08:00:56;;;;;;;7.20;2.40;;;;;;;15.64;49.37;101926.73;107033;1254;752033;-61
2023/05/11 08:03:25;;;;;;;82.60;6.20;;;;;;;15.76;48.91;101924.55;107627;1250;109767;-61
2023/05/11 08:05:54;;;;;;;31.20;4.50;;;;;;;15.87;48.93;101922.27;107632;1251;108390;-59
2023/05/11 08:08:24;;;;;;;10.20;2.60;;;;;;;15.99;48.65;101918.86;107572;1253;97828;-61
2023/05/11 08:10:53;;;;;;;4.50;2.40;;;;;;;16.07;47.41;101923.35;107586;1251;98350;-61
2023/05/11 08:13:21;;;;;;;11.40;2.00;;;;;;;16.12;46.52;101921.96;107586;1251;110929;-61
2023/05/11 08:15:50;;;;;;;4.70;2.30;;;;;;;16.15;45.65;101924.62;107646;1251;109394;-60
2023/05/11 08:18:18;;;;;;;109.20;7.60;;;;;;;16.15;45.42;101924.61;107520;1251;108352;-60
2023/05/11 08:20:47;;;;;;;7.70;2.40;;;;;;;16.17;44.87;101919.70;107503;1250;97811;-59
2023/05/11 08:23:17;;;;;;;99.90;6.80;;;;;;;16.19;44.26;101920.04;107590;1251;97829;-61
2023/05/11 08:25:53;;;;;;;108.50;9.10;;;;;;;16.23;44.47;101920.58;107595;1251;111980;-60
2023/05/11 08:28:22;;;;;;;89.40;6.20;;;;;;;16.28;45.12;101918.52;107591;1251;108976;-61
2023/05/11 08:30:55;;;;;;;88.00;6.80;;;;;;;16.28;44.85;101922.48;107596;1250;107662;-59
2023/05/11 08:33:23;;;;;;;13.00;2.20;;;;;;;16.29;44.50;101919.17;107565;1251;97914;-60
2023/05/11 08:35:55;;;;;;;13.60;2.70;;;;;;;16.21;44.16;101922.01;107608;1252;97726;-60
2023/05/11 08:38:23;;;;;;;86.10;20.70;;;;;;;16.17;44.57;101921.50;107561;1251;111674;-60
2023/05/11 08:40:52;;;;;;;21.40;4.50;;;;;;;16.15;44.03;101922.63;107598;1254;110199;-60
2023/05/11 08:43:23;;;;;;;44.70;5.20;;;;;;;16.09;43.73;101921.77;107554;1254;108171;-59
2023/05/11 08:45:58;;;;;;;33.10;8.50;;;;;;;16.06;43.71;101920.43;107601;1252;97845;-59
2023/05/11 08:48:28;;;;;;;14.20;4.40;;;;;;;16.06;43.95;101922.14;107605;1251;97785;-63
2023/05/11 08:50:58;;;;;;;3.00;2.00;;;;;;;16.09;44.33;101921.17;107613;1254;112312;-60
2023/05/11 08:53:27;;;;;;;6.00;1.80;;;;;;;16.12;43.81;101922.13;107588;1251;109942;-59
2023/05/11 08:55:58;;;;;;;6.90;2.20;;;;;;;16.11;43.23;101919.34;107616;1251;109231;-60
2023/05/11 08:58:28;;;;;;;11.90;2.40;;;;;;;16.11;43.01;101918.25;107548;1251;97825;-60
2023/05/11 09:00:58;;;;;;;6.20;1.90;;;;;;;16.12;42.50;101915.86;107630;1250;98617;-61
2023/05/11 09:03:28;;;;;;;12.30;2.10;;;;;;;16.11;40.82;101917.02;107598;1254;111136;-59
2023/05/11 09:05:58;;;;;;;9.20;2.50;;;;;;;16.08;39.58;101912.91;107634;1255;110120;-61
2023/05/11 09:08:30;;;;;;;7.00;2.40;;;;;;;16.06;39.69;101913.89;107571;1253;108714;-64
2023/05/11 09:10:59;;;;;;;10.70;1.70;;;;;;;16.05;38.93;101915.44;107600;1254;97825;-61
2023/05/11 09:13:29;;;;;;;5.10;1.80;;;;;;;16.04;38.69;101913.32;107667;1254;97837;-59
2023/05/11 09:15:58;;;;;;;5.40;2.00;;;;;;;16.04;39.57;101910.80;107627;1256;112524;-61
2023/05/11 09:18:26;;;;;;;8.70;2.20;;;;;;;16.07;39.62;101911.40;107634;1251;110159;-59
2023/05/11 09:20:54;;;;;;;10.00;2.30;;;;;;;16.12;38.53;101911.51;107573;1254;108135;-61
2023/05/11 09:23:27;;;;;;;5.00;1.90;;;;;;;16.16;38.37;101912.02;107569;1251;97911;-62
2023/05/11 09:25:56;;;;;;;32.70;3.30;;;;;;;16.20;39.03;101912.33;107631;1251;97726;-60
2023/05/11 09:28:26;;;;;;;11.20;2.30;;;;;;;16.26;40.20;101914.45;107644;1254;110674;-59
2023/05/11 09:31:02;;;;;;;4.90;1.90;;;;;;;16.40;40.53;101908.53;107612;1251;110632;-59
2023/05/11 09:33:31;;;;;;;7.80;2.70;;;;;;;16.52;40.74;101904.82;107620;1251;106799;-60
2023/05/11 09:36:01;;;;;;;16.80;2.90;;;;;;;16.68;40.49;101905.81;107627;1251;97866;-60
2023/05/11 09:38:31;;;;;;;4.90;2.20;;;;;;;16.83;39.81;101899.88;107631;1251;98363;-60
2023/05/11 09:41:03;;;;;;;7.40;2.40;;;;;;;16.97;40.02;101899.79;107636;1254;111099;-62
2023/05/11 09:43:32;;;;;;;15.90;2.00;;;;;;;17.12;39.50;101900.48;107578;1256;109855;-60
2023/05/11 09:46:05;;;;;;;11.80;2.40;;;;;;;17.27;39.33;101899.23;107593;1251;108037;-61
2023/05/11 09:48:35;;;;;;;12.50;2.10;;;;;;;17.45;38.48;101897.48;107580;1253;97700;-60
2023/05/11 09:51:06;;;;;;;9.30;1.90;;;;;;;17.63;38.28;101897.39;107613;1254;97920;-60
2023/05/11 09:53:44;;;;;;;4.20;1.90;;;;;;;17.89;36.44;101897.35;107621;1255;110262;-59
2023/05/11 09:56:14;;;;;;;52.70;25.20;;;;;;;17.98;36.50;101895.19;107614;1251;108774;-60
2023/05/11 09:58:47;;;;;;;7.70;4.30;;;;;;;18.09;36.86;101894.42;107599;1254;108483;-60
2023/05/11 10:01:17;;;;;;;10.20;2.50;;;;;;;18.24;36.75;101890.52;107590;1251;97815;-60
2023/05/11 10:03:55;;;;;;;13.50;5.20;;;;;;;18.37;36.24;101892.70;107629;1252;98513;-61
2023/05/11 10:06:48;;;;;;;12.90;2.00;;;;;;;18.48;37.09;101886.04;107581;1253;110724;-59
2023/05/11 10:09:21;;;;;;;4.20;1.80;;;;;;;18.55;37.27;101882.84;107616;1251;109037;-60
2023/05/11 10:11:52;;;;;;;18.40;1.90;;;;;;;18.61;36.67;101882.70;107627;1256;108561;-60
2023/05/11 10:14:21;;;;;;;5.80;1.80;;;;;;;18.62;37.02;101883.17;107603;1251;97890;-61
2023/05/11 10:16:51;;;;;;;12.60;2.40;;;;;;;18.59;38.03;101881.06;107666;1250;98343;-59
2023/05/11 10:19:19;;;;;;;23.60;2.00;;;;;;;18.49;38.58;101880.38;107606;1254;111621;-60
2023/05/11 10:21:48;;;;;;;16.70;2.00;;;;;;;18.39;38.59;101875.36;107635;1251;109889;-62
2023/05/11 10:24:16;;;;;;;17.20;2.30;;;;;;;18.24;38.85;101879.34;107607;1251;108624;-61
2023/05/11 10:26:48;;;;;;;14.30;2.70;;;;;;;18.12;39.13;101876.13;107678;1251;97897;-60
2023/05/11 10:29:18;;;;;;;8.80;1.60;;;;;;;18.03;39.32;101875.52;107685;1251;98350;-61
2023/05/11 10:31:47;;;;;;;9.30;1.80;;;;;;;17.95;39.23;101873.94;107648;1251;112195;-59
2023/05/11 10:34:16;;;;;;;12.90;2.30;;;;;;;17.83;39.11;101873.46;107580;1251;109210;-62
2023/05/11 10:36:45;;;;;;;15.60;2.20;;;;;;;17.72;39.63;101878.37;107614;1251;108106;-61
2023/05/11 10:39:14;;;;;;;14.10;2.10;;;;;;;17.64;40.05;101878.59;107643;1251;97961;-59
2023/05/11 10:42:20;;;;;;;19.50;2.70;;;;;;;17.53;40.32;101876.63;107584;1254;97743;-60
2023/05/11 10:45:00;;;;;;;14.90;2.70;;;;;;;17.38;40.49;101879.98;107507;1251;111679;-62
2023/05/11 10:47:34;;;;;;;9.20;2.30;;;;;;;17.26;41.08;101875.59;107589;1252;108973;-60
2023/05/11 10:50:12;;;;;;;8.20;2.70;;;;;;;17.28;41.67;101879.37;107638;1254;107726;-60
2023/05/11 10:53:18;;;;;;;4.70;2.40;;;;;;;17.31;41.44;101876.91;107569;1251;97925;-61
2023/05/11 10:56:09;;;;;;;9.70;2.30;;;;;;;17.30;41.17;101878.39;107621;1252;98237;-62
2023/05/11 10:59:11;;;;;;;5.40;2.30;;;;;;;17.21;41.02;101875.31;107645;1251;111826;-62
2023/05/11 11:01:41;;;;;;;30.00;2.80;;;;;;;17.11;40.93;101876.46;107548;1251;110598;-61
2023/05/11 11:04:13;;;;;;;8.60;2.20;;;;;;;17.04;41.10;101873.33;107603;1251;107358;-60
2023/05/11 11:06:43;;;;;;;76.00;4.90;;;;;;;17.00;41.15;101875.16;107588;1251;97906;-60
2023/05/11 11:09:15;;;;;;;8.90;2.00;;;;;;;17.01;41.09;101874.21;107617;1251;98433;-61
2023/05/11 11:11:49;;;;;;;56.20;13.90;;;;;;;17.06;41.08;101874.44;107624;1251;110829;-59
2023/05/11 11:14:18;;;;;;;10.30;2.90;;;;;;;17.08;41.11;101874.59;107635;1254;109403;-62
2023/05/11 11:17:15;;;;;;;11.80;2.90;;;;;;;17.09;41.05;101874.90;107522;1253;108109;-60
2023/05/11 11:19:43;;;;;;;13.70;2.80;;;;;;;17.06;41.24;101877.89;107601;1253;97822;-61
2023/05/11 11:22:33;;;;;;;5.70;1.90;;;;;;;17.07;41.45;101878.21;107619;1253;97710;-60
2023/05/11 11:25:04;;;;;;;10.00;3.40;;;;;;;17.05;41.26;101877.79;107637;1251;112237;-61
2023/05/11 11:27:39;;;;;;;17.00;4.20;;;;;;;17.04;41.43;101880.29;107647;1254;109980;-61